SPTN35 YSHW-YSHW
Flight info
| Callsign | SPTN35 |
|---|---|
| Flight time | 2h 6m |
| Altitude | 5000 |
| Route | DCT TAMMI EXETA BUNGO LGGS CB SUE LGGN GLB 342314S1501619E THK ONPK DCT |
| Aircraft | H60/M-SDFGRY/LB1 |
Departure
| Time | 2026-04-13 05:53 |
|---|---|
| Airport | Holsworthy (Military) Airport (YSHW) |
Arrival
| Time | 2026-04-13 07:59 |
|---|---|
| Airport | Holsworthy (Military) Airport (YSHW) |
| Time | Latitude | Longitude | Altitude | Speed | Heading |
|---|---|---|---|---|---|
| 2026-04-13 05:33 | -33.99482 | 150.95269 | 242 ft | 0 kts | 123° |
| 2026-04-13 05:50 | -33.99483 | 150.95271 | 241 ft | 1 kts | 123° |
| 2026-04-13 05:50 | -33.99494 | 150.95289 | 242 ft | 5 kts | 170° |
| 2026-04-13 05:50 | -33.99519 | 150.95277 | 243 ft | 2 kts | 217° |
| 2026-04-13 05:50 | -33.99533 | 150.95265 | 243 ft | 7 kts | 212° |
| 2026-04-13 05:51 | -33.99573 | 150.95236 | 243 ft | 6 kts | 172° |
| 2026-04-13 05:51 | -33.99582 | 150.95242 | 243 ft | 0 kts | 123° |
| 2026-04-13 05:52 | -33.99583 | 150.95243 | 249 ft | 2 kts | 117° |
| 2026-04-13 05:52 | -33.99664 | 150.95381 | 382 ft | 44 kts | 121° |
| 2026-04-13 05:53 | -33.99938 | 150.95878 | 876 ft | 95 kts | 127° |
| 2026-04-13 05:53 | -34.00342 | 150.96605 | 1250 ft | 114 kts | 128° |
| 2026-04-13 05:53 | -34.01093 | 150.96920 | 885 ft | 127 kts | 198° |
| 2026-04-13 05:53 | -34.01710 | 150.96211 | 1163 ft | 122 kts | 230° |
| 2026-04-13 05:54 | -34.02237 | 150.95373 | 1478 ft | 132 kts | 233° |
| 2026-04-13 05:54 | -34.02796 | 150.94385 | 1577 ft | 154 kts | 236° |
| 2026-04-13 05:54 | -34.03356 | 150.93271 | 1565 ft | 154 kts | 238° |
| 2026-04-13 05:54 | -34.03899 | 150.92163 | 1610 ft | 157 kts | 238° |
| 2026-04-13 05:55 | -34.04441 | 150.91042 | 1629 ft | 155 kts | 238° |
| 2026-04-13 05:55 | -34.04958 | 150.89954 | 1635 ft | 156 kts | 238° |
| 2026-04-13 05:55 | -34.05494 | 150.88838 | 1637 ft | 156 kts | 238° |
| 2026-04-13 05:55 | -34.06042 | 150.87758 | 1627 ft | 145 kts | 231° |
| 2026-04-13 05:56 | -34.06701 | 150.86914 | 1638 ft | 133 kts | 221° |
| 2026-04-13 05:56 | -34.07372 | 150.86094 | 1515 ft | 142 kts | 223° |
| 2026-04-13 05:56 | -34.08051 | 150.85249 | 1440 ft | 140 kts | 225° |
| 2026-04-13 05:56 | -34.08717 | 150.84407 | 1435 ft | 138 kts | 225° |
| 2026-04-13 05:57 | -34.09393 | 150.83545 | 1435 ft | 146 kts | 225° |
| 2026-04-13 05:57 | -34.10086 | 150.82694 | 1434 ft | 138 kts | 223° |
| 2026-04-13 05:57 | -34.10874 | 150.82062 | 1454 ft | 132 kts | 213° |
| 2026-04-13 05:57 | -34.11580 | 150.81355 | 1547 ft | 135 kts | 222° |
| 2026-04-13 05:58 | -34.12292 | 150.80573 | 1461 ft | 140 kts | 219° |
| 2026-04-13 05:58 | -34.12970 | 150.79821 | 1677 ft | 122 kts | 223° |
| 2026-04-13 05:58 | -34.13553 | 150.79211 | 2228 ft | 104 kts | 214° |
| 2026-04-13 05:58 | -34.14186 | 150.78700 | 2611 ft | 121 kts | 220° |
| 2026-04-13 05:59 | -34.14827 | 150.77992 | 2722 ft | 127 kts | 221° |
| 2026-04-13 05:59 | -34.15512 | 150.77274 | 2694 ft | 136 kts | 219° |
| 2026-04-13 05:59 | -34.16256 | 150.76515 | 2526 ft | 142 kts | 219° |
| 2026-04-13 05:59 | -34.17014 | 150.75783 | 2525 ft | 141 kts | 219° |
| 2026-04-13 06:00 | -34.17796 | 150.75037 | 2528 ft | 140 kts | 219° |
| 2026-04-13 06:00 | -34.18580 | 150.74317 | 2531 ft | 142 kts | 219° |
| 2026-04-13 06:00 | -34.19368 | 150.73594 | 2535 ft | 140 kts | 219° |
| 2026-04-13 06:00 | -34.20152 | 150.72895 | 2531 ft | 138 kts | 219° |
| 2026-04-13 06:01 | -34.20928 | 150.72196 | 2533 ft | 139 kts | 219° |
| 2026-04-13 06:01 | -34.21700 | 150.71497 | 2524 ft | 139 kts | 219° |
| 2026-04-13 06:01 | -34.22458 | 150.70795 | 2530 ft | 137 kts | 219° |
| 2026-04-13 06:01 | -34.23220 | 150.70083 | 2516 ft | 138 kts | 224° |
| 2026-04-13 06:02 | -34.23889 | 150.69284 | 2505 ft | 132 kts | 225° |
| 2026-04-13 06:02 | -34.24593 | 150.68583 | 2528 ft | 138 kts | 221° |
| 2026-04-13 06:02 | -34.25318 | 150.67879 | 2526 ft | 136 kts | 221° |
| 2026-04-13 06:02 | -34.26024 | 150.67222 | 2450 ft | 131 kts | 221° |
| 2026-04-13 06:03 | -34.26812 | 150.66451 | 2509 ft | 160 kts | 221° |
| 2026-04-13 06:03 | -34.27671 | 150.65498 | 2346 ft | 170 kts | 225° |
| 2026-04-13 06:03 | -34.28541 | 150.64538 | 2412 ft | 166 kts | 225° |
| 2026-04-13 06:03 | -34.29400 | 150.63591 | 2418 ft | 164 kts | 225° |
| 2026-04-13 06:04 | -34.30233 | 150.62661 | 2417 ft | 161 kts | 225° |
| 2026-04-13 06:04 | -34.31067 | 150.61703 | 2411 ft | 165 kts | 225° |
| 2026-04-13 06:04 | -34.31922 | 150.60728 | 2418 ft | 173 kts | 225° |
| 2026-04-13 06:04 | -34.32775 | 150.59751 | 2426 ft | 167 kts | 224° |
| 2026-04-13 06:05 | -34.33658 | 150.58887 | 2403 ft | 161 kts | 218° |
| 2026-04-13 06:05 | -34.34555 | 150.58050 | 2407 ft | 167 kts | 217° |
| 2026-04-13 06:05 | -34.35470 | 150.57220 | 2400 ft | 167 kts | 218° |
| 2026-04-13 06:05 | -34.36389 | 150.56408 | 2404 ft | 163 kts | 218° |
| 2026-04-13 06:06 | -34.37328 | 150.55602 | 2407 ft | 164 kts | 217° |
| 2026-04-13 06:06 | -34.38259 | 150.54827 | 2405 ft | 162 kts | 216° |
| 2026-04-13 06:06 | -34.39171 | 150.54042 | 2405 ft | 166 kts | 223° |
| 2026-04-13 06:06 | -34.40022 | 150.53129 | 2462 ft | 156 kts | 227° |
| 2026-04-13 06:07 | -34.40730 | 150.52200 | 2866 ft | 149 kts | 231° |
| 2026-04-13 06:07 | -34.41546 | 150.51356 | 3124 ft | 159 kts | 224° |
| 2026-04-13 06:07 | -34.42392 | 150.50469 | 3266 ft | 159 kts | 223° |
| 2026-04-13 06:07 | -34.43241 | 150.49585 | 3165 ft | 166 kts | 223° |
| 2026-04-13 06:08 | -34.44100 | 150.48695 | 3222 ft | 161 kts | 223° |
| 2026-04-13 06:08 | -34.44964 | 150.47797 | 3291 ft | 159 kts | 223° |
| 2026-04-13 06:08 | -34.45822 | 150.46917 | 3255 ft | 162 kts | 221° |
| 2026-04-13 06:08 | -34.46685 | 150.46069 | 3268 ft | 162 kts | 221° |
| 2026-04-13 06:09 | -34.47595 | 150.45197 | 3257 ft | 164 kts | 221° |
| 2026-04-13 06:09 | -34.48503 | 150.44337 | 3230 ft | 168 kts | 224° |
| 2026-04-13 06:09 | -34.49388 | 150.43459 | 3256 ft | 164 kts | 224° |
| 2026-04-13 06:09 | -34.50245 | 150.42564 | 3498 ft | 160 kts | 226° |
| 2026-04-13 06:10 | -34.51075 | 150.41676 | 3749 ft | 160 kts | 225° |
| 2026-04-13 06:10 | -34.51928 | 150.40767 | 3897 ft | 164 kts | 222° |
| 2026-04-13 06:10 | -34.52797 | 150.39857 | 4067 ft | 167 kts | 223° |
| 2026-04-13 06:10 | -34.53632 | 150.38931 | 4351 ft | 158 kts | 226° |
| 2026-04-13 06:11 | -34.54370 | 150.37985 | 4745 ft | 152 kts | 229° |
| 2026-04-13 06:11 | -34.55188 | 150.37140 | 4895 ft | 164 kts | 220° |
| 2026-04-13 06:11 | -34.56053 | 150.36224 | 5000 ft | 161 kts | 225° |
| 2026-04-13 06:11 | -34.56887 | 150.35255 | 4891 ft | 167 kts | 225° |
| 2026-04-13 06:12 | -34.57706 | 150.34321 | 4659 ft | 161 kts | 225° |
| 2026-04-13 06:12 | -34.58540 | 150.33381 | 4346 ft | 159 kts | 225° |
| 2026-04-13 06:12 | -34.59378 | 150.32464 | 4302 ft | 162 kts | 225° |
| 2026-04-13 06:12 | -34.60221 | 150.31563 | 4311 ft | 163 kts | 223° |
| 2026-04-13 06:13 | -34.61083 | 150.30671 | 4346 ft | 162 kts | 224° |
| 2026-04-13 06:13 | -34.61949 | 150.29779 | 4483 ft | 163 kts | 223° |
| 2026-04-13 06:13 | -34.62793 | 150.28902 | 4691 ft | 162 kts | 223° |
| 2026-04-13 06:13 | -34.63656 | 150.27986 | 4673 ft | 167 kts | 223° |
| 2026-04-13 06:14 | -34.64369 | 150.26876 | 4631 ft | 168 kts | 233° |
| 2026-04-13 06:14 | -34.65672 | 150.24730 | 5325 ft | 151 kts | 230° |
| 2026-04-13 06:14 | -34.66341 | 150.23693 | 5353 ft | 164 kts | 231° |
| 2026-04-13 06:15 | -34.67035 | 150.22545 | 5138 ft | 168 kts | 232° |
| 2026-04-13 06:15 | -34.67744 | 150.21420 | 4870 ft | 164 kts | 232° |
| 2026-04-13 06:15 | -34.68474 | 150.20312 | 4692 ft | 169 kts | 231° |
| 2026-04-13 06:15 | -34.69209 | 150.19216 | 4578 ft | 167 kts | 234° |
| 2026-04-13 06:16 | -34.69871 | 150.18055 | 4458 ft | 167 kts | 237° |
| 2026-04-13 06:16 | -34.70516 | 150.16893 | 4423 ft | 166 kts | 237° |
| 2026-04-13 06:16 | -34.71180 | 150.15732 | 4384 ft | 169 kts | 237° |
| 2026-04-13 06:16 | -34.71843 | 150.14598 | 4333 ft | 164 kts | 237° |
| 2026-04-13 06:17 | -34.72526 | 150.13449 | 4264 ft | 165 kts | 236° |
| 2026-04-13 06:17 | -34.73210 | 150.12299 | 4308 ft | 168 kts | 236° |
| 2026-04-13 06:17 | -34.73895 | 150.11160 | 4405 ft | 170 kts | 235° |
| 2026-04-13 06:17 | -34.74608 | 150.10045 | 4245 ft | 166 kts | 235° |
| 2026-04-13 06:18 | -34.75317 | 150.08926 | 4046 ft | 164 kts | 235° |
| 2026-04-13 06:18 | -34.75999 | 150.07847 | 3956 ft | 169 kts | 235° |
| 2026-04-13 06:18 | -34.76707 | 150.06731 | 3845 ft | 169 kts | 235° |
| 2026-04-13 06:18 | -34.77420 | 150.05629 | 3730 ft | 167 kts | 235° |
| 2026-04-13 06:19 | -34.78133 | 150.04522 | 3629 ft | 168 kts | 234° |
| 2026-04-13 06:19 | -34.78826 | 150.03405 | 3709 ft | 160 kts | 237° |
| 2026-04-13 06:19 | -34.79477 | 150.02326 | 4047 ft | 158 kts | 236° |
| 2026-04-13 06:19 | -34.80154 | 150.01260 | 3917 ft | 163 kts | 236° |
| 2026-04-13 06:20 | -34.80840 | 150.00180 | 3522 ft | 162 kts | 236° |
| 2026-04-13 06:20 | -34.81557 | 149.99109 | 3129 ft | 163 kts | 236° |
| 2026-04-13 06:20 | -34.82259 | 149.98050 | 2756 ft | 164 kts | 236° |
| 2026-04-13 06:20 | -34.82930 | 149.97001 | 2682 ft | 143 kts | 237° |
| 2026-04-13 06:21 | -34.83561 | 149.95947 | 2846 ft | 163 kts | 238° |
| 2026-04-13 06:21 | -34.84109 | 149.95002 | 3378 ft | 123 kts | 239° |
| 2026-04-13 06:21 | -34.84644 | 149.94089 | 3583 ft | 139 kts | 239° |
| 2026-04-13 06:21 | -34.85231 | 149.93055 | 3356 ft | 155 kts | 241° |
| 2026-04-13 06:22 | -34.85756 | 149.91923 | 3547 ft | 151 kts | 246° |
| 2026-04-13 06:22 | -34.86228 | 149.90794 | 3836 ft | 149 kts | 244° |
| 2026-04-13 06:22 | -34.86739 | 149.89693 | 3899 ft | 148 kts | 242° |
| 2026-04-13 06:22 | -34.87270 | 149.88604 | 3897 ft | 153 kts | 242° |
| 2026-04-13 06:23 | -34.87833 | 149.87526 | 3854 ft | 149 kts | 232° |
| 2026-04-13 06:23 | -34.88559 | 149.86604 | 3839 ft | 149 kts | 229° |
| 2026-04-13 06:23 | -34.89295 | 149.85725 | 3812 ft | 149 kts | 229° |
| 2026-04-13 06:23 | -34.90056 | 149.84818 | 3778 ft | 155 kts | 229° |
| 2026-04-13 06:24 | -34.90833 | 149.83917 | 3735 ft | 151 kts | 229° |
| 2026-04-13 06:24 | -34.91586 | 149.82991 | 3691 ft | 157 kts | 233° |
| 2026-04-13 06:24 | -34.92303 | 149.82029 | 3646 ft | 150 kts | 233° |
| 2026-04-13 06:24 | -34.93017 | 149.81087 | 3591 ft | 152 kts | 233° |
| 2026-04-13 06:25 | -34.93726 | 149.80150 | 3575 ft | 154 kts | 233° |
| 2026-04-13 06:25 | -34.94446 | 149.79208 | 3544 ft | 153 kts | 233° |
| 2026-04-13 06:25 | -34.95158 | 149.78234 | 3508 ft | 155 kts | 233° |
| 2026-04-13 06:25 | -34.95874 | 149.77267 | 3417 ft | 151 kts | 233° |
| 2026-04-13 06:26 | -34.96541 | 149.76341 | 3476 ft | 150 kts | 233° |
| 2026-04-13 06:26 | -34.97230 | 149.75377 | 3472 ft | 153 kts | 233° |
| 2026-04-13 06:26 | -34.97937 | 149.74418 | 3451 ft | 152 kts | 233° |
| 2026-04-13 06:26 | -34.98627 | 149.73484 | 3409 ft | 152 kts | 233° |
| 2026-04-13 06:27 | -34.99332 | 149.72505 | 3436 ft | 153 kts | 233° |
| 2026-04-13 06:27 | -35.00018 | 149.71547 | 3707 ft | 148 kts | 233° |
| 2026-04-13 06:27 | -35.00699 | 149.70599 | 4281 ft | 151 kts | 232° |
| 2026-04-13 06:27 | -35.01370 | 149.69671 | 4799 ft | 143 kts | 232° |
| 2026-04-13 06:28 | -35.02014 | 149.68760 | 4976 ft | 137 kts | 233° |
| 2026-04-13 06:28 | -35.02612 | 149.67727 | 4753 ft | 151 kts | 241° |
| 2026-04-13 06:28 | -35.03123 | 149.66676 | 5341 ft | 148 kts | 242° |
| 2026-04-13 06:28 | -35.03623 | 149.65559 | 5920 ft | 153 kts | 242° |
| 2026-04-13 06:29 | -35.04105 | 149.64391 | 6461 ft | 154 kts | 242° |
| 2026-04-13 06:29 | -35.04547 | 149.63209 | 6015 ft | 149 kts | 240° |
| 2026-04-13 06:29 | -35.05170 | 149.62223 | 5276 ft | 143 kts | 230° |
| 2026-04-13 06:29 | -35.05866 | 149.61344 | 4773 ft | 144 kts | 229° |
| 2026-04-13 06:30 | -35.06480 | 149.60439 | 4301 ft | 137 kts | 236° |
| 2026-04-13 06:30 | -35.07081 | 149.59509 | 4143 ft | 141 kts | 234° |
| 2026-04-13 06:30 | -35.07782 | 149.58616 | 4248 ft | 142 kts | 229° |
| 2026-04-13 06:30 | -35.08445 | 149.57750 | 4448 ft | 141 kts | 229° |
| 2026-04-13 06:31 | -35.09143 | 149.56863 | 4425 ft | 147 kts | 229° |
| 2026-04-13 06:31 | -35.09857 | 149.55970 | 4369 ft | 145 kts | 229° |
| 2026-04-13 06:31 | -35.10547 | 149.55102 | 4450 ft | 142 kts | 229° |
| 2026-04-13 06:31 | -35.11236 | 149.54235 | 4538 ft | 141 kts | 229° |
| 2026-04-13 06:32 | -35.11932 | 149.53336 | 4503 ft | 149 kts | 229° |
| 2026-04-13 06:32 | -35.12658 | 149.52412 | 4382 ft | 151 kts | 229° |
| 2026-04-13 06:32 | -35.13339 | 149.51500 | 4277 ft | 142 kts | 233° |
| 2026-04-13 06:32 | -35.13943 | 149.50598 | 4375 ft | 138 kts | 234° |
| 2026-04-13 06:33 | -35.14576 | 149.49678 | 4434 ft | 144 kts | 234° |
| 2026-04-13 06:33 | -35.15217 | 149.48740 | 4461 ft | 142 kts | 234° |
| 2026-04-13 06:33 | -35.15846 | 149.47815 | 4473 ft | 145 kts | 234° |
| 2026-04-13 06:33 | -35.16478 | 149.46864 | 4509 ft | 143 kts | 234° |
| 2026-04-13 06:34 | -35.17095 | 149.45929 | 4537 ft | 140 kts | 234° |
| 2026-04-13 06:34 | -35.17715 | 149.45014 | 4548 ft | 141 kts | 234° |
| 2026-04-13 06:34 | -35.18328 | 149.44085 | 4577 ft | 140 kts | 234° |
| 2026-04-13 06:34 | -35.18957 | 149.43160 | 4595 ft | 145 kts | 234° |
| 2026-04-13 06:35 | -35.19577 | 149.42218 | 4455 ft | 137 kts | 234° |
| 2026-04-13 06:35 | -35.20218 | 149.41212 | 3600 ft | 160 kts | 238° |
| 2026-04-13 06:35 | -35.20710 | 149.40006 | 3425 ft | 156 kts | 249° |
| 2026-04-13 06:35 | -35.21124 | 149.38828 | 3309 ft | 148 kts | 245° |
| 2026-04-13 06:36 | -35.21568 | 149.37673 | 3286 ft | 154 kts | 246° |
| 2026-04-13 06:36 | -35.22050 | 149.36524 | 3303 ft | 154 kts | 242° |
| 2026-04-13 06:36 | -35.22542 | 149.35394 | 3430 ft | 156 kts | 241° |
| 2026-04-13 06:36 | -35.23028 | 149.34253 | 3573 ft | 151 kts | 242° |
| 2026-04-13 06:37 | -35.23511 | 149.33107 | 3598 ft | 153 kts | 242° |
| 2026-04-13 06:37 | -35.24002 | 149.31943 | 3591 ft | 156 kts | 240° |
| 2026-04-13 06:37 | -35.24526 | 149.30777 | 3561 ft | 160 kts | 239° |
| 2026-04-13 06:37 | -35.25088 | 149.29648 | 3542 ft | 150 kts | 236° |
| 2026-04-13 06:38 | -35.25664 | 149.28640 | 3526 ft | 143 kts | 236° |
| 2026-04-13 06:38 | -35.26185 | 149.27624 | 3415 ft | 137 kts | 243° |
| 2026-04-13 06:38 | -35.26615 | 149.26577 | 3399 ft | 141 kts | 245° |
| 2026-04-13 06:38 | -35.27049 | 149.25536 | 3282 ft | 133 kts | 243° |
| 2026-04-13 06:39 | -35.27439 | 149.24535 | 3066 ft | 127 kts | 249° |
| 2026-04-13 06:39 | -35.27774 | 149.23652 | 3039 ft | 105 kts | 248° |
| 2026-04-13 06:39 | -35.28031 | 149.22907 | 3179 ft | 91 kts | 245° |
| 2026-04-13 06:39 | -35.28278 | 149.22165 | 3008 ft | 99 kts | 251° |
| 2026-04-13 06:40 | -35.28544 | 149.21372 | 2945 ft | 100 kts | 253° |
| 2026-04-13 06:40 | -35.28754 | 149.20596 | 2919 ft | 92 kts | 259° |
| 2026-04-13 06:40 | -35.28895 | 149.19823 | 2858 ft | 100 kts | 266° |
| 2026-04-13 06:40 | -35.28975 | 149.18917 | 2779 ft | 111 kts | 269° |
| 2026-04-13 06:41 | -35.29028 | 149.18038 | 2656 ft | 94 kts | 272° |
| 2026-04-13 06:41 | -35.29038 | 149.17224 | 2762 ft | 100 kts | 275° |
| 2026-04-13 06:41 | -35.29031 | 149.16369 | 2827 ft | 99 kts | 273° |
| 2026-04-13 06:41 | -35.28996 | 149.15686 | 2883 ft | 68 kts | 280° |
| 2026-04-13 06:42 | -35.28848 | 149.15190 | 2752 ft | 61 kts | 305° |
| 2026-04-13 06:42 | -35.28602 | 149.14805 | 2599 ft | 51 kts | 312° |
| 2026-04-13 06:42 | -35.28349 | 149.14643 | 2417 ft | 25 kts | 327° |
| 2026-04-13 06:43 | -35.28240 | 149.14687 | 2283 ft | 12 kts | 343° |
| 2026-04-13 06:43 | -35.28201 | 149.14747 | 2168 ft | 5 kts | 342° |
| 2026-04-13 06:43 | -35.28149 | 149.14723 | 2050 ft | 9 kts | 338° |
| 2026-04-13 06:43 | -35.28090 | 149.14724 | 1979 ft | 4 kts | 0° |
| 2026-04-13 06:44 | -35.28077 | 149.14719 | 1916 ft | 1 kts | 5° |
| 2026-04-13 06:57 | -35.28040 | 149.14711 | 2093 ft | 21 kts | 337° |
| 2026-04-13 06:57 | -35.28022 | 149.14223 | 2427 ft | 91 kts | 261° |
| 2026-04-13 06:58 | -35.28520 | 149.13542 | 2548 ft | 125 kts | 197° |
| 2026-04-13 06:58 | -35.29419 | 149.13360 | 2692 ft | 135 kts | 167° |
| 2026-04-13 06:58 | -35.30286 | 149.13708 | 3016 ft | 133 kts | 156° |
| 2026-04-13 06:58 | -35.31159 | 149.14214 | 2886 ft | 145 kts | 156° |
| 2026-04-13 06:59 | -35.31996 | 149.14832 | 3351 ft | 132 kts | 150° |
| 2026-04-13 06:59 | -35.32741 | 149.15514 | 3133 ft | 139 kts | 147° |
| 2026-04-13 06:59 | -35.33435 | 149.16369 | 3164 ft | 148 kts | 122° |
| 2026-04-13 06:59 | -35.33568 | 149.17635 | 2861 ft | 152 kts | 78° |
| 2026-04-13 07:00 | -35.33215 | 149.18784 | 2840 ft | 140 kts | 61° |
| 2026-04-13 07:00 | -35.32809 | 149.19789 | 2927 ft | 128 kts | 58° |
| 2026-04-13 07:00 | -35.32271 | 149.20614 | 2688 ft | 123 kts | 25° |
| 2026-04-13 07:00 | -35.31608 | 149.20661 | 2420 ft | 93 kts | 318° |
| 2026-04-13 07:01 | -35.31127 | 149.20163 | 2192 ft | 82 kts | 316° |
| 2026-04-13 07:01 | -35.30781 | 149.19866 | 2069 ft | 45 kts | 337° |
| 2026-04-13 07:01 | -35.30577 | 149.19767 | 1986 ft | 18 kts | 331° |
| 2026-04-13 07:01 | -35.30475 | 149.19701 | 1961 ft | 17 kts | 326° |
| 2026-04-13 07:02 | -35.30396 | 149.19637 | 1926 ft | 10 kts | 321° |
| 2026-04-13 07:02 | -35.30352 | 149.19594 | 1875 ft | 0 kts | 340° |
| 2026-04-13 07:09 | -35.30348 | 149.19594 | 1888 ft | 6 kts | 341° |
| 2026-04-13 07:10 | -35.30113 | 149.19587 | 2130 ft | 71 kts | 3° |
| 2026-04-13 07:10 | -35.29563 | 149.20048 | 2706 ft | 114 kts | 35° |
| 2026-04-13 07:10 | -35.28810 | 149.20645 | 3087 ft | 140 kts | 27° |
| 2026-04-13 07:10 | -35.27904 | 149.21259 | 3004 ft | 150 kts | 26° |
| 2026-04-13 07:11 | -35.26975 | 149.21792 | 3147 ft | 150 kts | 18° |
| 2026-04-13 07:11 | -35.26002 | 149.22320 | 3247 ft | 155 kts | 19° |
| 2026-04-13 07:11 | -35.25020 | 149.22867 | 3286 ft | 157 kts | 20° |
| 2026-04-13 07:11 | -35.23953 | 149.23381 | 3306 ft | 175 kts | 17° |
| 2026-04-13 07:12 | -35.22796 | 149.23870 | 3396 ft | 176 kts | 17° |
| 2026-04-13 07:12 | -35.21663 | 149.24381 | 3329 ft | 175 kts | 17° |
| 2026-04-13 07:12 | -35.20526 | 149.24891 | 3286 ft | 175 kts | 17° |
| 2026-04-13 07:12 | -35.19390 | 149.25393 | 3284 ft | 171 kts | 17° |
| 2026-04-13 07:13 | -35.18267 | 149.25907 | 3281 ft | 168 kts | 22° |
| 2026-04-13 07:13 | -35.17216 | 149.26515 | 3294 ft | 179 kts | 29° |
| 2026-04-13 07:13 | -35.16114 | 149.27207 | 3296 ft | 181 kts | 30° |
| 2026-04-13 07:13 | -35.15004 | 149.27870 | 3337 ft | 178 kts | 34° |
| 2026-04-13 07:14 | -35.13930 | 149.28681 | 3385 ft | 178 kts | 31° |
| 2026-04-13 07:14 | -35.12902 | 149.29545 | 3437 ft | 181 kts | 31° |
| 2026-04-13 07:14 | -35.11885 | 149.30401 | 3459 ft | 178 kts | 31° |
| 2026-04-13 07:14 | -35.10865 | 149.31258 | 3451 ft | 182 kts | 30° |
| 2026-04-13 07:15 | -35.09813 | 149.32082 | 3422 ft | 177 kts | 25° |
| 2026-04-13 07:15 | -35.08725 | 149.32833 | 3378 ft | 184 kts | 22° |
| 2026-04-13 07:15 | -35.07561 | 149.33427 | 3267 ft | 176 kts | 15° |
| 2026-04-13 07:15 | -35.06415 | 149.34031 | 3226 ft | 177 kts | 28° |
| 2026-04-13 07:16 | -35.05368 | 149.34799 | 3340 ft | 179 kts | 30° |
| 2026-04-13 07:16 | -35.04311 | 149.35582 | 3474 ft | 178 kts | 27° |
| 2026-04-13 07:16 | -35.03246 | 149.36353 | 3559 ft | 179 kts | 27° |
| 2026-04-13 07:16 | -35.02186 | 149.37141 | 3685 ft | 181 kts | 28° |
| 2026-04-13 07:17 | -35.01135 | 149.37912 | 3869 ft | 177 kts | 27° |
| 2026-04-13 07:17 | -35.00079 | 149.38691 | 4167 ft | 177 kts | 28° |
| 2026-04-13 07:17 | -34.99127 | 149.39615 | 4478 ft | 178 kts | 52° |
| 2026-04-13 07:17 | -34.98322 | 149.40834 | 4178 ft | 188 kts | 52° |
| 2026-04-13 07:18 | -34.97579 | 149.42092 | 3955 ft | 184 kts | 56° |
| 2026-04-13 07:18 | -34.96879 | 149.43384 | 3840 ft | 184 kts | 56° |
| 2026-04-13 07:18 | -34.96161 | 149.44742 | 4007 ft | 201 kts | 56° |
| 2026-04-13 07:18 | -34.95377 | 149.46165 | 4132 ft | 190 kts | 56° |
| 2026-04-13 07:19 | -34.94663 | 149.47468 | 4420 ft | 190 kts | 56° |
| 2026-04-13 07:19 | -34.93933 | 149.48792 | 4697 ft | 190 kts | 56° |
| 2026-04-13 07:19 | -34.93214 | 149.50135 | 4831 ft | 199 kts | 59° |
| 2026-04-13 07:19 | -34.92525 | 149.51494 | 4879 ft | 186 kts | 59° |
| 2026-04-13 07:20 | -34.91817 | 149.52839 | 4980 ft | 186 kts | 59° |
| 2026-04-13 07:20 | -34.91130 | 149.54193 | 4931 ft | 190 kts | 59° |
| 2026-04-13 07:20 | -34.90435 | 149.55564 | 4952 ft | 188 kts | 59° |
| 2026-04-13 07:20 | -34.89741 | 149.56929 | 4976 ft | 184 kts | 59° |
| 2026-04-13 07:21 | -34.89059 | 149.58295 | 4937 ft | 194 kts | 59° |
| 2026-04-13 07:21 | -34.88378 | 149.59667 | 4940 ft | 190 kts | 59° |
| 2026-04-13 07:21 | -34.87708 | 149.61027 | 4915 ft | 189 kts | 59° |
| 2026-04-13 07:21 | -34.87048 | 149.62409 | 4933 ft | 189 kts | 59° |
| 2026-04-13 07:22 | -34.86362 | 149.63766 | 4924 ft | 188 kts | 55° |
| 2026-04-13 07:22 | -34.85585 | 149.65034 | 4932 ft | 187 kts | 53° |
| 2026-04-13 07:22 | -34.84816 | 149.66289 | 4926 ft | 187 kts | 53° |
| 2026-04-13 07:22 | -34.84035 | 149.67544 | 4924 ft | 183 kts | 53° |
| 2026-04-13 07:23 | -34.83280 | 149.68843 | 4923 ft | 191 kts | 58° |
| 2026-04-13 07:23 | -34.82582 | 149.70201 | 4922 ft | 190 kts | 58° |
| 2026-04-13 07:23 | -34.81887 | 149.71547 | 4915 ft | 188 kts | 58° |
| 2026-04-13 07:23 | -34.81197 | 149.72907 | 4925 ft | 188 kts | 59° |
| 2026-04-13 07:24 | -34.80457 | 149.74202 | 4919 ft | 189 kts | 40° |
| 2026-04-13 07:24 | -34.79469 | 149.75224 | 4893 ft | 189 kts | 35° |
| 2026-04-13 07:24 | -34.78455 | 149.76221 | 4926 ft | 189 kts | 44° |
| 2026-04-13 07:24 | -34.77555 | 149.77366 | 4930 ft | 187 kts | 46° |
| 2026-04-13 07:25 | -34.76653 | 149.78530 | 4916 ft | 187 kts | 46° |
| 2026-04-13 07:25 | -34.75763 | 149.79677 | 4910 ft | 187 kts | 46° |
| 2026-04-13 07:25 | -34.74868 | 149.80844 | 4920 ft | 188 kts | 46° |
| 2026-04-13 07:25 | -34.73920 | 149.81971 | 4931 ft | 192 kts | 39° |
| 2026-04-13 07:26 | -34.72930 | 149.82973 | 4928 ft | 189 kts | 38° |
| 2026-04-13 07:26 | -34.71923 | 149.83986 | 4925 ft | 188 kts | 38° |
| 2026-04-13 07:26 | -34.70966 | 149.85044 | 4913 ft | 187 kts | 44° |
| 2026-04-13 07:26 | -34.70045 | 149.86173 | 4935 ft | 191 kts | 44° |
| 2026-04-13 07:27 | -34.69106 | 149.87303 | 4920 ft | 187 kts | 44° |
| 2026-04-13 07:27 | -34.68180 | 149.88421 | 4917 ft | 188 kts | 44° |
| 2026-04-13 07:27 | -34.67244 | 149.89526 | 4926 ft | 186 kts | 44° |
| 2026-04-13 07:27 | -34.66299 | 149.90624 | 4924 ft | 188 kts | 44° |
| 2026-04-13 07:28 | -34.65358 | 149.91723 | 4923 ft | 189 kts | 44° |
| 2026-04-13 07:28 | -34.64419 | 149.92831 | 4923 ft | 189 kts | 44° |
| 2026-04-13 07:28 | -34.63507 | 149.93922 | 4918 ft | 188 kts | 44° |
| 2026-04-13 07:28 | -34.62569 | 149.95030 | 4923 ft | 189 kts | 44° |
| 2026-04-13 07:29 | -34.61641 | 149.96127 | 4913 ft | 188 kts | 44° |
| 2026-04-13 07:29 | -34.60700 | 149.97227 | 4918 ft | 189 kts | 44° |
| 2026-04-13 07:29 | -34.59762 | 149.98318 | 4919 ft | 188 kts | 44° |
| 2026-04-13 07:29 | -34.58819 | 149.99415 | 4918 ft | 190 kts | 44° |
| 2026-04-13 07:30 | -34.57870 | 150.00518 | 4916 ft | 188 kts | 44° |
| 2026-04-13 07:30 | -34.56930 | 150.01609 | 4921 ft | 189 kts | 44° |
| 2026-04-13 07:30 | -34.55984 | 150.02727 | 4923 ft | 190 kts | 44° |
| 2026-04-13 07:30 | -34.55059 | 150.03822 | 4926 ft | 189 kts | 44° |
| 2026-04-13 07:31 | -34.54116 | 150.04932 | 4926 ft | 190 kts | 44° |
| 2026-04-13 07:31 | -34.53182 | 150.06044 | 4921 ft | 186 kts | 44° |
| 2026-04-13 07:31 | -34.52252 | 150.07149 | 4923 ft | 186 kts | 44° |
| 2026-04-13 07:31 | -34.51318 | 150.08259 | 4917 ft | 187 kts | 44° |
| 2026-04-13 07:32 | -34.50383 | 150.09354 | 4917 ft | 188 kts | 44° |
| 2026-04-13 07:32 | -34.49460 | 150.10446 | 4917 ft | 188 kts | 44° |
| 2026-04-13 07:32 | -34.48523 | 150.11536 | 4918 ft | 187 kts | 44° |
| 2026-04-13 07:32 | -34.47580 | 150.12628 | 4926 ft | 189 kts | 44° |
| 2026-04-13 07:33 | -34.46597 | 150.13672 | 4920 ft | 188 kts | 41° |
| 2026-04-13 07:33 | -34.45624 | 150.14693 | 4920 ft | 189 kts | 41° |
| 2026-04-13 07:33 | -34.44638 | 150.15725 | 4924 ft | 187 kts | 41° |
| 2026-04-13 07:34 | -34.42674 | 150.17802 | 4908 ft | 189 kts | 41° |
| 2026-04-13 07:34 | -34.41692 | 150.18836 | 4897 ft | 188 kts | 41° |
| 2026-04-13 07:34 | -34.40724 | 150.19863 | 4910 ft | 185 kts | 41° |
| 2026-04-13 07:34 | -34.39734 | 150.20916 | 4934 ft | 187 kts | 43° |
| 2026-04-13 07:35 | -34.38769 | 150.21960 | 4927 ft | 186 kts | 43° |
| 2026-04-13 07:35 | -34.37806 | 150.22996 | 4927 ft | 188 kts | 43° |
| 2026-04-13 07:35 | -34.36837 | 150.24078 | 4918 ft | 190 kts | 46° |
| 2026-04-13 07:35 | -34.35975 | 150.25259 | 4924 ft | 189 kts | 49° |
| 2026-04-13 07:36 | -34.35107 | 150.26449 | 4924 ft | 189 kts | 50° |
| 2026-04-13 07:36 | -34.34240 | 150.27640 | 4926 ft | 188 kts | 50° |
| 2026-04-13 07:36 | -34.33362 | 150.28834 | 4914 ft | 190 kts | 50° |
| 2026-04-13 07:36 | -34.32487 | 150.30011 | 4911 ft | 188 kts | 50° |
| 2026-04-13 07:37 | -34.31617 | 150.31190 | 4912 ft | 189 kts | 50° |
| 2026-04-13 07:37 | -34.30632 | 150.32221 | 4878 ft | 191 kts | 38° |
| 2026-04-13 07:37 | -34.29623 | 150.33187 | 4884 ft | 189 kts | 38° |
| 2026-04-13 07:37 | -34.28590 | 150.34171 | 4920 ft | 188 kts | 38° |
| 2026-04-13 07:38 | -34.27566 | 150.35142 | 4957 ft | 184 kts | 39° |
| 2026-04-13 07:38 | -34.26658 | 150.36202 | 4926 ft | 193 kts | 50° |
| 2026-04-13 07:38 | -34.25735 | 150.37323 | 4931 ft | 188 kts | 48° |
| 2026-04-13 07:38 | -34.24783 | 150.38402 | 4905 ft | 190 kts | 46° |
| 2026-04-13 07:39 | -34.23798 | 150.39451 | 4876 ft | 188 kts | 44° |
| 2026-04-13 07:39 | -34.22792 | 150.40463 | 4855 ft | 187 kts | 42° |
| 2026-04-13 07:39 | -34.21765 | 150.41456 | 4821 ft | 188 kts | 43° |
| 2026-04-13 07:39 | -34.20767 | 150.42445 | 4793 ft | 188 kts | 42° |
| 2026-04-13 07:40 | -34.19824 | 150.43545 | 4771 ft | 182 kts | 51° |
| 2026-04-13 07:40 | -34.18959 | 150.44736 | 4872 ft | 188 kts | 50° |
| 2026-04-13 07:40 | -34.18086 | 150.45917 | 4965 ft | 189 kts | 50° |
| 2026-04-13 07:40 | -34.17227 | 150.47088 | 5100 ft | 184 kts | 49° |
| 2026-04-13 07:41 | -34.16271 | 150.48150 | 5325 ft | 182 kts | 43° |
| 2026-04-13 07:41 | -34.15297 | 150.49173 | 5127 ft | 184 kts | 43° |
| 2026-04-13 07:41 | -34.14349 | 150.50208 | 4850 ft | 185 kts | 44° |
| 2026-04-13 07:41 | -34.13402 | 150.51247 | 4852 ft | 185 kts | 44° |
| 2026-04-13 07:42 | -34.12451 | 150.52303 | 4837 ft | 186 kts | 44° |
| 2026-04-13 07:42 | -34.11512 | 150.53375 | 4776 ft | 185 kts | 45° |
| 2026-04-13 07:42 | -34.10572 | 150.54440 | 4727 ft | 185 kts | 45° |
| 2026-04-13 07:42 | -34.09679 | 150.55492 | 4742 ft | 170 kts | 47° |
| 2026-04-13 07:43 | -34.08905 | 150.56459 | 4705 ft | 153 kts | 49° |
| 2026-04-13 07:43 | -34.08243 | 150.57315 | 4787 ft | 126 kts | 52° |
| 2026-04-13 07:43 | -34.07813 | 150.57896 | 4749 ft | 53 kts | 56° |
| 2026-04-13 07:43 | -34.07672 | 150.58050 | 4815 ft | 13 kts | 68° |
| 2026-04-13 07:44 | -34.07610 | 150.58067 | 4733 ft | 5 kts | 76° |
| 2026-04-13 07:44 | -34.07603 | 150.58051 | 4685 ft | 3 kts | 62° |
| 2026-04-13 07:44 | -34.07605 | 150.58140 | 4765 ft | 17 kts | 80° |
| 2026-04-13 07:44 | -34.07612 | 150.58321 | 4796 ft | 26 kts | 61° |
| 2026-04-13 07:45 | -34.07616 | 150.58555 | 4863 ft | 27 kts | 77° |
| 2026-04-13 07:45 | -34.07649 | 150.58731 | 4803 ft | 17 kts | 66° |
| 2026-04-13 07:45 | -34.07725 | 150.58817 | 4719 ft | 11 kts | 71° |
| 2026-04-13 07:45 | -34.07721 | 150.58884 | 4631 ft | 11 kts | 71° |
| 2026-04-13 07:46 | -34.07632 | 150.58936 | 4533 ft | 13 kts | 85° |
| 2026-04-13 07:46 | -34.07547 | 150.58941 | 4479 ft | 11 kts | 81° |
| 2026-04-13 07:46 | -34.07504 | 150.58927 | 4396 ft | 8 kts | 83° |
| 2026-04-13 07:46 | -34.07426 | 150.58960 | 4272 ft | 16 kts | 77° |
| 2026-04-13 07:47 | -34.07398 | 150.59049 | 4221 ft | 19 kts | 79° |
| 2026-04-13 07:47 | -34.07400 | 150.59293 | 4413 ft | 7 kts | 78° |
| 2026-04-13 07:47 | -34.07450 | 150.59265 | 4467 ft | 17 kts | 76° |
| 2026-04-13 07:47 | -34.07575 | 150.59150 | 4414 ft | 13 kts | 83° |
| 2026-04-13 07:48 | -34.07610 | 150.59124 | 4426 ft | 10 kts | 83° |
| 2026-04-13 07:48 | -34.07674 | 150.59023 | 4370 ft | 23 kts | 66° |
| 2026-04-13 07:48 | -34.07780 | 150.58925 | 4254 ft | 21 kts | 45° |
| 2026-04-13 07:48 | -34.07889 | 150.58754 | 4264 ft | 30 kts | 11° |
| 2026-04-13 07:49 | -34.07931 | 150.58219 | 4218 ft | 92 kts | 250° |
| 2026-04-13 07:49 | -34.08101 | 150.57264 | 5244 ft | 84 kts | 252° |
| 2026-04-13 07:49 | -34.08207 | 150.56524 | 4737 ft | 93 kts | 267° |
| 2026-04-13 07:49 | -34.08182 | 150.56075 | 5225 ft | 70 kts | 267° |
| 2026-04-13 07:50 | -34.08104 | 150.55542 | 5073 ft | 59 kts | 275° |
| 2026-04-13 07:50 | -34.07875 | 150.55113 | 4625 ft | 71 kts | 324° |
| 2026-04-13 07:50 | -34.07323 | 150.55002 | 3665 ft | 100 kts | 43° |
| 2026-04-13 07:50 | -34.06824 | 150.55793 | 2641 ft | 110 kts | 88° |
| 2026-04-13 07:51 | -34.06806 | 150.56352 | 3544 ft | 48 kts | 99° |
| 2026-04-13 07:51 | -34.06833 | 150.56724 | 4216 ft | 44 kts | 87° |
| 2026-04-13 07:51 | -34.06878 | 150.57084 | 4894 ft | 43 kts | 69° |
| 2026-04-13 07:51 | -34.06941 | 150.57542 | 5013 ft | 46 kts | 64° |
| 2026-04-13 07:52 | -34.06913 | 150.57853 | 5117 ft | 63 kts | 71° |
| 2026-04-13 07:52 | -34.06729 | 150.58469 | 5183 ft | 100 kts | 75° |
| 2026-04-13 07:52 | -34.06446 | 150.59449 | 4891 ft | 144 kts | 77° |
| 2026-04-13 07:52 | -34.06083 | 150.60714 | 4761 ft | 172 kts | 76° |
| 2026-04-13 07:53 | -34.05628 | 150.62143 | 4798 ft | 191 kts | 72° |
| 2026-04-13 07:53 | -34.05174 | 150.63628 | 4961 ft | 188 kts | 75° |
| 2026-04-13 07:53 | -34.04721 | 150.65141 | 4932 ft | 198 kts | 70° |
| 2026-04-13 07:53 | -34.04056 | 150.66562 | 5052 ft | 186 kts | 63° |
| 2026-04-13 07:54 | -34.03433 | 150.67916 | 4822 ft | 187 kts | 64° |
| 2026-04-13 07:54 | -34.02836 | 150.69344 | 4810 ft | 195 kts | 66° |
| 2026-04-13 07:54 | -34.02189 | 150.70778 | 4876 ft | 192 kts | 65° |
| 2026-04-13 07:54 | -34.01564 | 150.72141 | 5041 ft | 185 kts | 66° |
| 2026-04-13 07:55 | -34.00987 | 150.73521 | 5081 ft | 188 kts | 72° |
| 2026-04-13 07:55 | -34.00600 | 150.74999 | 5032 ft | 185 kts | 85° |
| 2026-04-13 07:55 | -34.00431 | 150.76546 | 4960 ft | 187 kts | 89° |
| 2026-04-13 07:55 | -34.00305 | 150.78094 | 4919 ft | 187 kts | 92° |
| 2026-04-13 07:56 | -34.00206 | 150.79650 | 4887 ft | 184 kts | 89° |
| 2026-04-13 07:56 | -34.00107 | 150.81194 | 4897 ft | 186 kts | 88° |
| 2026-04-13 07:56 | -34.00022 | 150.82743 | 4971 ft | 185 kts | 90° |
| 2026-04-13 07:56 | -33.99994 | 150.84287 | 5056 ft | 184 kts | 93° |
| 2026-04-13 07:57 | -33.99967 | 150.85838 | 5110 ft | 188 kts | 92° |
| 2026-04-13 07:57 | -33.99944 | 150.87377 | 4950 ft | 185 kts | 92° |
| 2026-04-13 07:57 | -33.99913 | 150.88915 | 4439 ft | 177 kts | 92° |
| 2026-04-13 07:57 | -33.99916 | 150.90273 | 4887 ft | 150 kts | 92° |
| 2026-04-13 07:58 | -33.99898 | 150.91496 | 4979 ft | 141 kts | 88° |
| 2026-04-13 07:58 | -33.99820 | 150.92602 | 4131 ft | 131 kts | 96° |
| 2026-04-13 07:58 | -33.99953 | 150.93643 | 2517 ft | 109 kts | 73° |
| 2026-04-13 07:58 | -33.99798 | 150.94119 | 1600 ft | 23 kts | 15° |
| 2026-04-13 07:59 | -33.99769 | 150.94144 | 1435 ft | 39 kts | 6° |
| 2026-04-13 07:59 | -33.99414 | 150.94507 | 967 ft | 68 kts | 55° |
| 2026-04-13 07:59 | -33.99186 | 150.94642 | 843 ft | 4 kts | 120° |
| 2026-04-13 07:59 | -33.99297 | 150.94687 | 718 ft | 25 kts | 130° |
| 2026-04-13 08:00 | -33.99305 | 150.94775 | 622 ft | 4 kts | 127° |
| 2026-04-13 08:00 | -33.99425 | 150.94951 | 265 ft | 52 kts | 122° |
| 2026-04-13 08:00 | -33.99465 | 150.95023 | 239 ft | 0 kts | 127° |
| 2026-04-13 08:00 | -33.99479 | 150.95046 | 239 ft | 7 kts | 122° |
| 2026-04-13 08:01 | -33.99509 | 150.95105 | 240 ft | 6 kts | 121° |
| 2026-04-13 08:01 | -33.99492 | 150.95140 | 241 ft | 5 kts | 32° |
| 2026-04-13 08:01 | -33.99460 | 150.95164 | 240 ft | 7 kts | 32° |
| 2026-04-13 08:01 | -33.99448 | 150.95208 | 240 ft | 3 kts | 124° |
| 2026-04-13 08:02 | -33.99451 | 150.95212 | 240 ft | 0 kts | 124° |